Time;durP1;ratioP1;P1;durP2;ratioP2;P2;SDS_P1;SDS_P2;PMS_P1;PMS_P2;Temp;Humidity;BMP_temperature;BMP_pressure;BME280_temperature;BME280_humidity;BME280_pressure;Samples;Min_cycle;Max_cycle;Signal;HPM_P1;HPM_P2
2022/04/05 00:02:19;;;;;;;8.77;5.33;;;;;;;7.48;81.67;94272.63;5052607;28;20198;-62
2022/04/05 00:04:44;;;;;;;9.90;6.00;;;;;;;7.63;81.48;94266.34;5054245;28;20209;-63
2022/04/05 00:07:10;;;;;;;8.57;5.47;;;;;;;7.47;81.04;94260.91;5052470;28;20197;-59
2022/04/05 00:09:35;;;;;;;7.03;5.40;;;;;;;7.33;82.29;94256.91;5054424;28;20185;-60
2022/04/05 00:12:01;;;;;;;9.53;6.10;;;;;;;7.35;82.36;94257.59;5053719;28;20286;-62
2022/04/05 00:14:33;;;;;;;9.73;5.87;;;;;;;7.26;83.22;94244.88;5054171;28;20185;-62
2022/04/05 00:16:59;;;;;;;7.97;5.90;;;;;;;7.14;84.31;94239.06;5053536;28;20260;-59
2022/04/05 00:19:25;;;;;;;9.77;6.73;;;;;;;7.04;84.91;94232.31;5054146;28;20637;-61
2022/04/05 00:21:54;;;;;;;10.60;6.17;;;;;;;7.08;84.76;94248.84;5053751;28;20201;-63
2022/04/05 00:24:20;;;;;;;8.37;5.97;;;;;;;7.23;84.01;94257.78;5053839;28;20673;-63
2022/04/05 00:26:46;;;;;;;7.53;5.67;;;;;;;7.29;83.10;94258.06;5051895;28;20240;-58
2022/04/05 00:29:11;;;;;;;9.47;5.83;;;;;;;7.34;83.17;94262.78;5053670;28;20212;-62
2022/04/05 00:31:37;;;;;;;11.10;5.67;;;;;;;7.29;83.35;94252.25;5053256;28;20284;-59
2022/04/05 00:34:03;;;;;;;9.67;6.10;;;;;;;7.27;83.81;94249.81;5052208;28;20199;-60
2022/04/05 00:36:28;;;;;;;9.47;6.60;;;;;;;7.31;83.77;94250.41;5053251;28;20201;-60
2022/04/05 00:38:54;;;;;;;11.07;5.87;;;;;;;7.30;84.27;94244.53;5053546;28;20219;-63
2022/04/05 00:41:19;;;;;;;8.93;6.30;;;;;;;7.49;82.98;94259.84;5053167;28;20564;-61
2022/04/05 00:43:45;;;;;;;12.07;6.60;;;;;;;7.41;83.26;94251.28;5053434;28;20186;-60
2022/04/05 00:46:10;;;;;;;10.67;6.07;;;;;;;7.36;84.16;94238.19;5053005;28;20193;-62
2022/04/05 00:48:44;;;;;;;9.03;6.07;;;;;;;7.37;83.82;94242.31;5053067;28;20595;-63
2022/04/05 00:51:10;;;;;;;8.17;5.87;;;;;;;7.48;84.10;94245.59;5052853;28;20296;-58
2022/04/05 00:53:36;;;;;;;8.20;5.90;;;;;;;7.62;82.97;94255.44;5053218;28;20340;-59
2022/04/05 00:56:04;;;;;;;7.63;5.77;;;;;;;7.68;81.29;94259.19;5052946;28;20755;-58
2022/04/05 00:58:30;;;;;;;8.90;5.97;;;;;;;7.51;81.99;94254.69;5052679;28;20558;-61
2022/04/05 01:00:57;;;;;;;11.03;6.87;;;;;;;7.48;82.02;94254.91;5051575;28;20200;-61
2022/04/05 01:03:24;;;;;;;14.27;6.77;;;;;;;7.48;81.03;94262.50;5052881;28;20268;-60
2022/04/05 01:05:52;;;;;;;7.90;5.53;;;;;;;7.23;83.08;94233.28;5050506;28;20694;-61
2022/04/05 01:08:19;;;;;;;9.17;5.80;;;;;;;7.26;83.79;94228.00;5052944;28;20185;-65
2022/04/05 01:10:46;;;;;;;11.87;6.33;;;;;;;7.28;83.94;94222.81;5052712;28;20205;-62
2022/04/05 01:13:11;;;;;;;10.40;6.30;;;;;;;7.38;83.63;94231.28;5051240;28;20196;-61
2022/04/05 01:15:37;;;;;;;9.70;6.50;;;;;;;7.35;82.55;94241.66;5051287;28;20200;-61
2022/04/05 01:18:03;;;;;;;10.70;6.93;;;;;;;7.32;82.56;94231.75;5052476;28;20212;-61
2022/04/05 01:20:29;;;;;;;8.67;6.50;;;;;;;7.37;83.26;94235.53;5052530;28;20263;-61
2022/04/05 01:22:55;;;;;;;7.97;6.30;;;;;;;7.26;83.87;94227.19;5052691;28;20189;-64
2022/04/05 01:25:21;;;;;;;9.63;6.47;;;;;;;7.19;84.92;94219.28;5052175;28;20247;-58
2022/04/05 01:27:47;;;;;;;7.70;5.93;;;;;;;7.17;84.35;94218.59;5052614;28;20190;-61
2022/04/05 01:30:13;;;;;;;8.73;6.60;;;;;;;7.39;83.01;94243.00;5052137;28;20180;-58
2022/04/05 01:32:40;;;;;;;10.50;6.50;;;;;;;7.39;83.23;94241.25;5052412;28;20174;-61
2022/04/05 01:35:06;;;;;;;10.57;6.10;;;;;;;7.28;82.96;94232.94;5052411;28;20189;-58
2022/04/05 01:37:32;;;;;;;13.67;6.87;;;;;;;7.04;83.67;94219.69;5052228;28;20182;-61
2022/04/05 01:39:58;;;;;;;7.77;6.23;;;;;;;7.09;84.29;94217.63;5052047;28;20690;-59
2022/04/05 01:42:24;;;;;;;8.83;6.40;;;;;;;7.17;83.45;94228.69;5050812;28;20260;-61
2022/04/05 01:44:49;;;;;;;10.50;6.43;;;;;;;7.19;83.60;94231.91;5051857;28;20572;-62
2022/04/05 01:47:16;;;;;;;8.57;6.33;;;;;;;7.19;84.80;94213.44;5050829;28;20709;-58
2022/04/05 01:49:43;;;;;;;12.03;6.03;;;;;;;7.23;83.24;94235.81;5052688;28;20218;-60
2022/04/05 01:52:10;;;;;;;11.97;6.47;;;;;;;7.05;84.63;94226.34;5052261;28;20212;-62
2022/04/05 01:54:36;;;;;;;8.13;5.93;;;;;;;6.80;84.30;94219.88;5052497;28;20220;-59
2022/04/05 01:57:03;;;;;;;10.33;6.03;;;;;;;6.98;84.60;94218.44;5052353;28;20346;-62
2022/04/05 01:59:30;;;;;;;8.80;6.33;;;;;;;7.01;85.39;94217.41;5052080;28;20224;-60
2022/04/05 02:01:56;;;;;;;7.50;5.57;;;;;;;7.05;84.27;94221.31;5051791;28;20223;-59
2022/04/05 02:04:22;;;;;;;8.80;5.77;;;;;;;6.96;84.41;94210.19;5052182;28;20227;-64
2022/04/05 02:06:48;;;;;;;9.27;5.70;;;;;;;6.68;85.82;94196.34;5051842;28;20209;-62
2022/04/05 02:09:14;;;;;;;10.57;5.43;;;;;;;6.57;86.51;94193.03;5052191;28;20223;-62
2022/04/05 02:11:42;;;;;;;8.03;5.13;;;;;;;6.37;88.37;94176.06;5051629;28;20245;-60
2022/04/05 02:14:07;;;;;;;8.50;5.23;;;;;;;6.52;88.46;94180.78;5051926;28;20191;-59
2022/04/05 02:16:33;;;;;;;8.70;5.03;;;;;;;6.67;87.84;94189.69;5053726;28;20205;-61
2022/04/05 02:18:59;;;;;;;9.90;5.50;;;;;;;6.61;87.59;94181.78;5056013;28;20660;-62
2022/04/05 02:21:25;;;;;;;6.27;4.60;;;;;;;6.55;88.57;94178.00;5055980;28;20200;-59
2022/04/05 02:23:50;;;;;;;7.40;4.83;;;;;;;6.53;88.75;94179.03;5055843;28;20202;-62
2022/04/05 02:26:16;;;;;;;6.80;5.23;;;;;;;6.71;87.17;94186.00;5055665;28;20200;-63
2022/04/05 02:28:42;;;;;;;7.57;5.23;;;;;;;6.70;87.44;94179.38;5056013;28;20185;-61
2022/04/05 02:31:08;;;;;;;7.00;4.80;;;;;;;7.00;85.95;94188.00;5054314;28;20197;-64
2022/04/05 02:33:33;;;;;;;7.77;5.10;;;;;;;6.84;86.02;94183.34;5055689;28;20189;-62
2022/04/05 02:35:59;;;;;;;6.03;4.87;;;;;;;6.74;85.81;94185.78;5055516;28;20208;-62
2022/04/05 02:38:24;;;;;;;7.33;5.00;;;;;;;6.81;85.84;94187.84;5055678;28;20216;-62
2022/04/05 02:40:50;;;;;;;10.90;4.77;;;;;;;6.60;86.83;94163.31;5055397;28;20694;-62
2022/04/05 02:43:15;;;;;;;6.50;5.00;;;;;;;6.61;86.76;94175.00;5055586;28;20181;-61
2022/04/05 02:45:41;;;;;;;6.87;4.40;;;;;;;6.33;85.81;94190.66;5055524;28;20713;-61
2022/04/05 02:48:06;;;;;;;7.83;4.47;;;;;;;6.15;87.50;94171.84;5055454;28;20180;-61
2022/04/05 02:50:32;;;;;;;6.00;3.53;;;;;;;5.92;88.51;94152.59;5055318;28;20689;-63
2022/04/05 02:52:57;;;;;;;5.70;3.97;;;;;;;5.81;89.48;94150.84;5055311;28;20235;-61
2022/04/05 02:55:23;;;;;;;7.60;4.43;;;;;;;5.68;90.71;94150.13;5055567;28;20204;-63
2022/04/05 02:57:50;;;;;;;7.77;4.47;;;;;;;5.57;91.87;94129.97;5055023;28;20207;-62
2022/04/05 03:00:16;;;;;;;5.90;4.47;;;;;;;5.57;91.99;94145.09;5053575;28;20651;-60
2022/04/05 03:02:42;;;;;;;6.80;4.40;;;;;;;5.63;91.90;94146.38;5055177;28;20179;-59
2022/04/05 03:05:09;;;;;;;5.60;3.93;;;;;;;5.51;92.01;94150.59;5055209;28;20174;-57
2022/04/05 03:07:36;;;;;;;8.30;3.90;;;;;;;5.50;93.27;94148.16;5055115;28;20618;-59
2022/04/05 03:10:02;;;;;;;6.27;4.27;;;;;;;5.64;92.51;94151.28;5055087;28;20198;-58
2022/04/05 03:12:29;;;;;;;5.33;4.20;;;;;;;5.75;91.88;94163.09;5054909;28;20571;-60
2022/04/05 03:14:55;;;;;;;7.27;3.90;;;;;;;5.83;90.88;94156.63;5053548;28;20190;-62
2022/04/05 03:17:21;;;;;;;6.47;3.77;;;;;;;5.83;90.12;94165.88;5053524;28;20209;-60
2022/04/05 03:19:46;;;;;;;6.23;4.37;;;;;;;5.84;90.76;94154.88;5053763;28;20731;-60
2022/04/05 03:22:12;;;;;;;5.50;4.33;;;;;;;5.89;91.17;94158.69;5054395;28;20242;-60
2022/04/05 03:24:45;;;;;;;5.97;4.20;;;;;;;6.10;90.38;94163.03;5055544;28;20188;-60
2022/04/05 03:27:10;;;;;;;4.53;3.97;;;;;;;6.10;89.00;94168.09;5053883;28;20204;-61
2022/04/05 03:29:36;;;;;;;7.17;3.80;;;;;;;6.21;87.78;94180.69;5054421;28;20620;-61
2022/04/05 03:32:02;;;;;;;6.30;4.00;;;;;;;6.35;86.47;94193.88;5053732;28;20232;-60
2022/04/05 03:34:28;;;;;;;5.60;3.77;;;;;;;6.28;86.98;94181.84;5053995;28;20196;-60
2022/04/05 03:36:54;;;;;;;6.13;5.03;;;;;;;6.29;88.70;94161.53;5054200;28;20735;-62
2022/04/05 03:39:20;;;;;;;4.90;3.77;;;;;;;6.32;88.82;94168.84;5054789;28;20215;-60
2022/04/05 03:41:45;;;;;;;5.90;4.20;;;;;;;6.36;88.78;94171.97;5054589;28;20201;-58
2022/04/05 03:44:11;;;;;;;8.87;4.57;;;;;;;6.53;87.01;94187.41;5054673;28;20189;-64
2022/04/05 03:46:36;;;;;;;8.50;4.50;;;;;;;6.27;86.95;94175.97;5052903;28;20689;-65
2022/04/05 03:49:03;;;;;;;6.90;4.30;;;;;;;6.07;88.08;94165.78;5053049;28;20701;-59
2022/04/05 03:51:28;;;;;;;6.70;3.80;;;;;;;6.02;88.51;94173.69;5054177;28;20212;-62
2022/04/05 03:53:54;;;;;;;7.70;4.43;;;;;;;5.99;88.59;94163.84;5052923;28;20607;-60
2022/04/05 03:56:20;;;;;;;6.63;3.87;;;;;;;5.85;89.37;94153.97;5054057;28;20780;-63
2022/04/05 03:58:46;;;;;;;6.77;3.70;;;;;;;5.60;90.54;94147.38;5054246;28;20214;-62
2022/04/05 04:01:11;;;;;;;9.00;4.07;;;;;;;5.29;93.12;94125.34;5053957;28;20203;-64
2022/04/05 04:03:37;;;;;;;5.43;3.47;;;;;;;5.26;91.87;94144.91;5054439;28;20575;-61
2022/04/05 04:06:02;;;;;;;5.80;3.43;;;;;;;4.99;93.06;94140.94;5053807;28;20685;-62
2022/04/05 04:08:28;;;;;;;4.07;3.33;;;;;;;4.77;95.16;94133.31;5053558;28;20195;-62
2022/04/05 04:10:53;;;;;;;5.47;3.93;;;;;;;4.74;100.00;94148.63;5053649;28;20195;-61
2022/04/05 04:13:20;;;;;;;4.10;3.20;;;;;;;5.35;100.00;94167.75;5053896;28;20198;-61
2022/04/05 04:15:46;;;;;;;5.00;3.37;;;;;;;5.43;100.00;94183.13;5051906;28;20203;-62
2022/04/05 04:18:11;;;;;;;5.83;3.57;;;;;;;5.38;100.00;94217.09;5053936;28;20212;-61
2022/04/05 04:20:42;;;;;;;6.43;3.43;;;;;;;5.24;100.00;94204.69;5053498;28;20698;-61
2022/04/05 04:23:08;;;;;;;4.43;3.40;;;;;;;5.13;100.00;94206.25;5053710;28;20212;-67
2022/04/05 04:25:34;;;;;;;4.97;3.47;;;;;;;5.13;100.00;94186.09;5052436;28;20199;-61
2022/04/05 04:28:00;;;;;;;5.47;3.10;;;;;;;5.27;100.00;94202.78;5052121;28;20290;-64
2022/04/05 04:30:25;;;;;;;9.00;4.23;;;;;;;5.26;100.00;94193.59;5053150;28;20291;-59
2022/04/05 04:32:51;;;;;;;5.93;4.00;;;;;;;5.42;100.00;94181.50;5052405;28;20213;-63
2022/04/05 04:35:16;;;;;;;9.60;3.83;;;;;;;5.54;100.00;94193.22;5054096;28;20210;-65
2022/04/05 04:37:42;;;;;;;7.07;4.00;;;;;;;5.51;100.00;94197.69;5053617;28;20266;-62
2022/04/05 04:40:08;;;;;;;12.13;4.63;;;;;;;5.55;100.00;94191.50;5053332;28;20261;-63
2022/04/05 04:42:34;;;;;;;10.37;5.37;;;;;;;5.58;100.00;94193.78;5053183;28;20177;-58
2022/04/05 04:45:01;;;;;;;9.60;5.20;;;;;;;5.74;100.00;94214.44;5052967;28;20204;-59
2022/04/05 04:47:26;;;;;;;10.73;4.83;;;;;;;5.71;100.00;94207.13;5052837;28;20213;-62
2022/04/05 04:49:52;;;;;;;8.23;5.13;;;;;;;5.75;100.00;94211.81;5051930;28;20188;-61
2022/04/05 04:52:17;;;;;;;9.60;5.07;;;;;;;5.82;100.00;94220.53;5051540;28;20674;-58
2022/04/05 04:54:43;;;;;;;8.10;5.27;;;;;;;5.94;100.00;94236.50;5050796;28;20533;-62
2022/04/05 04:57:08;;;;;;;12.73;6.27;;;;;;;6.10;100.00;94234.47;5050030;28;20196;-62
2022/04/05 04:59:34;;;;;;;10.50;6.80;;;;;;;6.15;100.00;94250.06;5053390;28;20219;-63
2022/04/05 05:01:59;;;;;;;11.80;7.23;;;;;;;6.10;100.00;94234.47;5052880;28;20198;-59
2022/04/05 05:04:25;;;;;;;12.97;7.63;;;;;;;6.07;100.00;94219.56;5053509;28;20180;-60
2022/04/05 05:06:51;;;;;;;15.87;7.47;;;;;;;6.02;100.00;94229.19;5053058;28;20705;-59
2022/04/05 05:09:17;;;;;;;10.23;6.97;;;;;;;6.07;100.00;94246.50;5053544;28;20196;-58
2022/04/05 05:11:44;;;;;;;12.30;7.87;;;;;;;6.08;100.00;94236.28;5053173;28;20193;-61
2022/04/05 05:14:10;;;;;;;12.03;7.20;;;;;;;6.02;100.00;94231.69;5052765;28;20260;-62
2022/04/05 05:16:35;;;;;;;11.43;6.87;;;;;;;5.92;100.00;94220.69;5051870;28;20192;-59
2022/04/05 05:19:01;;;;;;;14.33;7.73;;;;;;;5.98;100.00;94221.97;5053091;28;20205;-61
2022/04/05 05:21:26;;;;;;;13.20;7.17;;;;;;;6.11;100.00;94245.38;5053036;28;20736;-62
2022/04/05 05:23:51;;;;;;;11.80;7.43;;;;;;;5.97;100.00;94227.91;5051477;28;20558;-61
2022/04/05 05:26:17;;;;;;;12.60;7.20;;;;;;;6.05;100.00;94249.16;5052833;28;20195;-63
2022/04/05 05:28:42;;;;;;;12.13;8.00;;;;;;;6.16;100.00;94248.38;5051501;28;20210;-59
2022/04/05 05:31:08;;;;;;;12.70;7.83;;;;;;;6.11;100.00;94248.69;5058296;23;20232;-59
2022/04/05 05:33:33;;;;;;;16.63;8.10;;;;;;;5.98;100.00;94242.16;5052268;28;20181;-59
2022/04/05 05:35:59;;;;;;;16.93;8.17;;;;;;;6.01;100.00;94234.34;5052804;28;20552;-60
2022/04/05 05:38:25;;;;;;;17.30;8.23;;;;;;;6.19;100.00;94253.97;5052308;28;20700;-63
2022/04/05 05:40:51;;;;;;;13.93;8.00;;;;;;;6.18;100.00;94244.00;5052415;28;20239;-63
2022/04/05 05:43:16;;;;;;;15.67;8.73;;;;;;;6.17;100.00;94248.25;5052698;28;20201;-59
2022/04/05 05:45:42;;;;;;;13.57;7.50;;;;;;;6.25;100.00;94248.47;5052703;28;20289;-60
2022/04/05 05:48:08;;;;;;;13.07;8.90;;;;;;;6.31;100.00;94253.06;5051918;28;20207;-59
2022/04/05 05:50:34;;;;;;;18.03;9.80;;;;;;;6.40;100.00;94266.72;5051657;28;20212;-63
2022/04/05 05:52:59;;;;;;;38.57;11.17;;;;;;;6.32;100.00;94246.31;5051621;28;20184;-63
2022/04/05 05:55:25;;;;;;;19.80;10.73;;;;;;;6.44;100.00;94251.25;5052129;28;20282;-62
2022/04/05 05:57:51;;;;;;;25.60;9.67;;;;;;;6.66;100.00;94261.34;5050417;28;20518;-61
2022/04/05 06:00:22;;;;;;;20.07;10.53;;;;;;;6.84;100.00;94281.84;5050834;28;20218;-62
2022/04/05 06:02:58;;;;;;;17.23;8.90;;;;;;;6.68;99.90;94287.28;5051839;28;20220;-61
2022/04/05 06:05:24;;;;;;;12.10;8.90;;;;;;;6.35;100.00;94259.50;5050286;28;20212;-61
2022/04/05 06:07:50;;;;;;;13.03;7.93;;;;;;;6.41;100.00;94256.50;5051781;28;20208;-61
2022/04/05 06:10:16;;;;;;;17.00;8.80;;;;;;;6.51;100.00;94259.94;5052389;28;20736;-62
2022/04/05 06:12:48;;;;;;;13.50;8.07;;;;;;;6.72;99.51;94277.75;5051773;28;20649;-63
2022/04/05 06:15:15;;;;;;;16.40;8.73;;;;;;;6.61;100.00;94255.00;5051811;28;20678;-64
2022/04/05 06:17:42;;;;;;;12.80;8.27;;;;;;;6.78;100.00;94254.53;5051704;28;20587;-60
2022/04/05 06:20:09;;;;;;;11.43;7.17;;;;;;;7.09;97.90;94290.91;5050485;28;20274;-63
2022/04/05 06:22:44;;;;;;;13.27;7.40;;;;;;;7.04;97.45;94293.78;5051593;28;20187;-59
2022/04/05 06:25:11;;;;;;;10.63;6.70;;;;;;;7.05;98.19;94275.16;5050071;28;20208;-61
2022/04/05 06:27:38;;;;;;;10.70;6.47;;;;;;;7.08;98.52;94277.44;5051847;28;20182;-64
2022/04/05 06:30:05;;;;;;;12.30;7.70;;;;;;;7.19;98.09;94274.09;5050231;28;20782;-61
2022/04/05 06:32:31;;;;;;;11.70;7.27;;;;;;;7.30;96.75;94300.16;5049777;28;20576;-61
2022/04/05 06:34:59;;;;;;;14.30;6.53;;;;;;;7.38;97.50;94297.00;5051512;28;20194;-63
2022/04/05 06:37:25;;;;;;;13.77;6.80;;;;;;;7.52;96.88;94300.06;5051692;28;20215;-61
2022/04/05 06:39:50;;;;;;;12.57;7.13;;;;;;;7.63;96.68;94284.06;5051697;28;20217;-59
2022/04/05 06:42:15;;;;;;;11.23;6.63;;;;;;;7.79;96.75;94289.50;5050081;28;20205;-60
2022/04/05 06:44:41;;;;;;;12.77;7.47;;;;;;;7.86;96.07;94298.19;5051598;28;20639;-63
2022/04/05 06:47:08;;;;;;;11.33;7.33;;;;;;;7.85;95.74;94296.59;5051458;28;20291;-59
2022/04/05 06:49:34;;;;;;;11.83;7.40;;;;;;;7.69;96.13;94286.09;5051677;28;20193;-61
2022/04/05 06:51:59;;;;;;;14.07;8.00;;;;;;;7.72;96.68;94275.72;5051312;28;20193;-61
2022/04/05 06:54:25;;;;;;;14.90;6.77;;;;;;;7.83;95.88;94283.28;5050332;28;20195;-61
2022/04/05 06:56:50;;;;;;;16.63;8.23;;;;;;;7.83;96.85;94270.63;5049429;28;20204;-58
2022/04/05 06:59:16;;;;;;;18.27;10.13;;;;;;;7.85;97.14;94260.38;5050010;28;20244;-61
2022/04/05 07:01:41;;;;;;;15.23;8.13;;;;;;;7.95;96.92;94272.16;5051727;28;20189;-64
2022/04/05 07:04:07;;;;;;;10.77;6.83;;;;;;;8.03;96.28;94279.13;5053695;28;20229;-61
2022/04/05 07:06:32;;;;;;;11.73;7.03;;;;;;;8.00;96.57;94265.00;5055161;28;20190;-62
2022/04/05 07:08:58;;;;;;;12.67;7.20;;;;;;;7.99;96.77;94263.41;5054990;28;20186;-64
2022/04/05 07:11:23;;;;;;;12.63;7.00;;;;;;;8.12;97.38;94248.03;5055084;28;20245;-60
2022/04/05 07:13:51;;;;;;;9.83;7.53;;;;;;;8.26;96.98;94256.09;5055124;28;20220;-61
2022/04/05 07:16:17;;;;;;;9.60;7.07;;;;;;;8.62;95.91;94277.63;5054975;28;20742;-62
2022/04/05 07:18:43;;;;;;;8.97;5.67;;;;;;;8.60;92.10;94327.63;5053388;28;20205;-60
2022/04/05 07:21:08;;;;;;;7.90;6.13;;;;;;;8.60;92.83;94309.88;5054866;28;20209;-63
2022/04/05 07:23:36;;;;;;;12.50;6.77;;;;;;;8.88;92.51;94318.53;5054292;28;20701;-61
2022/04/05 07:26:02;;;;;;;10.80;7.40;;;;;;;8.94;91.52;94323.88;5054156;28;20231;-60
2022/04/05 07:28:27;;;;;;;11.87;7.00;;;;;;;8.93;90.93;94317.19;5052396;28;20185;-59
2022/04/05 07:30:53;;;;;;;10.60;6.20;;;;;;;8.96;91.84;94306.81;5051550;28;20221;-59
2022/04/05 07:33:18;;;;;;;9.93;7.27;;;;;;;9.23;91.74;94296.09;5054630;28;20178;-61
2022/04/05 07:35:44;;;;;;;9.33;5.93;;;;;;;9.42;88.45;94356.97;5055017;28;20201;-64
2022/04/05 07:38:09;;;;;;;15.07;7.07;;;;;;;9.42;88.02;94359.53;5054667;28;20691;-61
2022/04/05 07:40:50;;;;;;;13.97;7.67;;;;;;;9.57;88.09;94349.81;5054875;28;20217;-65
2022/04/05 07:43:28;;;;;;;10.13;6.77;;;;;;;9.67;89.80;94307.47;5054533;28;20161;-64
2022/04/05 07:45:55;;;;;;;14.83;6.93;;;;;;;9.83;88.90;94328.06;5054678;28;20289;-63
2022/04/05 07:48:22;;;;;;;8.97;6.33;;;;;;;10.22;87.48;94341.56;5054438;28;20209;-61
2022/04/05 07:50:49;;;;;;;10.87;6.37;;;;;;;10.36;84.62;94382.63;5053816;28;20202;-61
2022/04/05 07:53:15;;;;;;;11.03;6.30;;;;;;;10.14;85.38;94363.34;5053555;28;20205;-61
2022/04/05 07:55:41;;;;;;;15.77;7.03;;;;;;;10.14;86.19;94353.19;5051876;28;20212;-61
2022/04/05 07:58:06;;;;;;;13.77;6.90;;;;;;;10.18;85.15;94363.09;5052928;28;20647;-61
2022/04/05 08:00:32;;;;;;;9.53;5.50;;;;;;;10.06;80.93;94424.13;5054487;28;20263;-60
2022/04/05 08:02:57;;;;;;;10.30;5.10;;;;;;;10.16;81.34;94403.06;5054036;28;20213;-59
2022/04/05 08:05:27;;;;;;;6.17;4.53;;;;;;;10.32;83.36;94355.06;5052812;28;20583;-61
2022/04/05 08:07:54;;;;;;;8.53;4.73;;;;;;;10.46;83.62;94352.91;5053997;28;20208;-59
2022/04/05 08:10:19;;;;;;;7.83;4.70;;;;;;;10.65;83.77;94346.97;5053805;28;20213;-60
2022/04/05 08:12:47;;;;;;;8.37;5.30;;;;;;;10.88;82.39;94374.47;5053732;28;20173;-61
2022/04/05 08:15:23;;;;;;;11.53;5.60;;;;;;;10.88;81.05;94389.75;5053452;28;20220;-60
2022/04/05 08:17:50;;;;;;;8.10;4.97;;;;;;;10.91;78.72;94419.97;5053765;28;20161;-63
2022/04/05 08:20:16;;;;;;;10.00;5.00;;;;;;;10.81;79.32;94403.94;5053949;28;20196;-62
2022/04/05 08:22:42;;;;;;;8.07;5.40;;;;;;;10.47;77.05;94425.66;5052068;28;20182;-63
2022/04/05 08:25:09;;;;;;;9.70;5.67;;;;;;;10.75;78.13;94401.13;5053122;28;20601;-62
2022/04/05 08:27:35;;;;;;;11.37;6.13;;;;;;;11.21;80.07;94364.72;5051241;28;20196;-62
2022/04/05 08:30:03;;;;;;;12.00;5.50;;;;;;;11.19;77.38;94414.94;5052542;28;20207;-62
2022/04/05 08:32:29;;;;;;;10.50;5.77;;;;;;;10.92;77.48;94402.97;5053387;28;20269;-62
2022/04/05 08:34:54;;;;;;;12.37;6.73;;;;;;;10.89;77.82;94380.34;5053876;28;20184;-61
2022/04/05 08:37:22;;;;;;;17.57;6.30;;;;;;;11.02;77.69;94380.84;5052065;28;20258;-61
2022/04/05 08:39:48;;;;;;;8.80;5.83;;;;;;;11.59;77.98;94380.59;5053492;28;20213;-63
2022/04/05 08:42:14;;;;;;;14.07;6.60;;;;;;;11.53;75.17;94413.47;5053128;28;20203;-63
2022/04/05 08:44:43;;;;;;;9.30;6.40;;;;;;;11.84;75.86;94406.38;5053287;28;20178;-64
2022/04/05 08:47:12;;;;;;;8.60;6.03;;;;;;;12.31;77.91;94357.59;5053043;28;20193;-61
2022/04/05 08:49:38;;;;;;;10.43;6.97;;;;;;;12.50;75.07;94418.59;5052762;28;20189;-61
2022/04/05 08:52:04;;;;;;;7.50;5.50;;;;;;;12.64;69.16;94450.44;5052826;28;20578;-61
2022/04/05 08:54:30;;;;;;;6.17;5.17;;;;;;;12.64;63.25;94475.94;5051903;28;20215;-61
2022/04/05 08:56:55;;;;;;;8.03;4.97;;;;;;;12.88;64.44;94401.34;5051996;28;20197;-63
2022/04/05 08:59:21;;;;;;;7.17;5.83;;;;;;;13.03;61.41;94433.03;5051482;28;20287;-61
2022/04/05 09:01:46;;;;;;;10.50;5.60;;;;;;;12.64;60.56;94418.06;5052900;28;20205;-65
2022/04/05 09:04:12;;;;;;;10.53;5.50;;;;;;;13.14;58.78;94454.00;5052979;28;20186;-61
2022/04/05 09:06:37;;;;;;;6.73;5.50;;;;;;;13.60;56.49;94480.09;5052935;28;20194;-61
2022/04/05 09:09:17;;;;;;;8.97;5.90;;;;;;;13.26;59.46;94403.50;5051517;28;20185;-61
2022/04/05 09:11:45;;;;;;;9.40;6.07;;;;;;;13.80;58.44;94412.50;5051247;28;20287;-59
2022/04/05 09:14:11;;;;;;;8.33;5.30;;;;;;;13.82;55.19;94489.78;5050946;28;20240;-59
2022/04/05 09:16:37;;;;;;;8.43;4.63;;;;;;;13.91;52.49;94496.53;5051864;28;20260;-61
2022/04/05 09:19:15;;;;;;;12.83;5.37;;;;;;;14.44;52.50;94488.59;5052624;28;20217;-59
2022/04/05 09:21:57;;;;;;;7.57;4.03;;;;;;;14.83;50.37;94510.88;5052127;28;20789;-60
2022/04/05 09:24:36;;;;;;;6.45;4.22;;;;;;;14.10;49.09;94519.28;5052925;28;20201;-59
2022/04/05 09:27:02;;;;;;;7.03;3.90;;;;;;;13.89;48.97;94508.69;5051177;28;20196;-61
2022/04/05 09:29:51;;;;;;;6.60;4.20;;;;;;;14.30;48.43;94520.69;5052363;28;20201;-59
2022/04/05 09:32:37;;;;;;;5.13;3.37;;;;;;;14.96;47.50;94530.88;5051693;28;20198;-59
2022/04/05 09:35:05;;;;;;;5.63;3.63;;;;;;;15.64;47.86;94501.38;5050081;28;20595;-59
2022/04/05 09:37:35;;;;;;;5.37;3.77;;;;;;;16.07;45.31;94512.94;5049723;28;20243;-61
2022/04/05 09:40:32;;;;;;;6.20;2.85;;;;;;;16.55;44.51;94479.38;5052167;28;20220;-60
2022/04/05 09:43:07;;;;;;;5.85;2.90;;;;;;;16.78;43.20;94472.50;5051002;28;20177;-60
2022/04/05 09:46:00;;;;;;;3.72;2.88;;;;;;;16.85;43.16;94449.47;5052398;28;20225;-60
2022/04/05 09:48:32;;;;;;;4.82;3.15;;;;;;;16.73;40.93;94492.72;5052035;28;20174;-61
2022/04/05 09:51:00;;;;;;;4.15;3.33;;;;;;;17.09;41.96;94445.91;5050771;28;20228;-59
2022/04/05 09:53:28;;;;;;;7.43;2.78;;;;;;;16.34;40.06;94457.84;5051705;28;20177;-59
2022/04/05 09:56:03;;;;;;;8.10;5.50;;;;;;;16.24;39.59;94447.75;5052124;28;20202;-60
2022/04/05 09:58:29;;;;;;;4.45;2.95;;;;;;;16.67;40.84;94413.03;5051694;28;20259;-61
2022/04/05 10:01:06;;;;;;;3.58;2.65;;;;;;;17.06;40.86;94405.16;5051594;28;20606;-61
2022/04/05 10:03:32;;;;;;;3.38;2.83;;;;;;;17.23;41.96;94373.22;5051578;28;20165;-60
2022/04/05 10:05:57;;;;;;;5.35;2.75;;;;;;;17.62;40.35;94412.28;5033448;28;20632;-61
2022/04/05 10:08:23;;;;;;;6.32;3.08;;;;;;;17.65;37.51;94468.53;5051040;28;20178;-61
2022/04/05 10:10:49;;;;;;;4.75;3.42;;;;;;;17.48;39.84;94383.03;5052031;28;20197;-61
2022/04/05 10:13:15;;;;;;;3.17;2.88;;;;;;;16.82;37.80;94428.47;5051659;28;20201;-61
2022/04/05 10:15:47;;;;;;;3.58;3.10;;;;;;;16.43;38.97;94398.59;5052045;28;20201;-62
2022/04/05 10:18:15;;;;;;;4.28;3.60;;;;;;;16.43;39.77;94398.59;5051383;28;20201;-60
2022/04/05 10:20:41;;;;;;;4.68;3.05;;;;;;;16.89;39.05;94388.31;5051326;28;20205;-63
2022/04/05 10:23:07;;;;;;;3.60;3.25;;;;;;;17.01;38.39;94381.78;5050218;28;20596;-61
2022/04/05 10:25:34;;;;;;;3.25;2.95;;;;;;;17.87;39.02;94362.19;5051910;28;20201;-60
2022/04/05 10:28:00;;;;;;;4.40;2.90;;;;;;;18.17;37.97;94368.84;5050225;28;20186;-61
2022/04/05 10:30:43;;;;;;;3.08;2.65;;;;;;;18.39;37.39;94383.31;5050669;28;20286;-59
2022/04/05 10:33:41;;;;;;;4.47;2.95;;;;;;;18.51;37.28;94363.03;5050691;28;20208;-63
2022/04/05 10:36:08;;;;;;;8.73;3.28;;;;;;;18.66;37.36;94358.63;5031266;28;20703;-62
2022/04/05 10:38:34;;;;;;;4.43;3.22;;;;;;;18.88;38.51;94334.41;5052344;28;20217;-61
2022/04/05 10:41:30;;;;;;;5.60;3.35;;;;;;;18.89;36.12;94369.47;5055241;28;20201;-62
2022/04/05 10:44:18;;;;;;;6.40;3.15;;;;;;;18.87;36.14;94360.34;5041515;28;20205;-59
2022/04/05 10:46:58;;;;;;;5.28;3.25;;;;;;;18.90;35.09;94378.81;5055581;28;20198;-62
2022/04/05 10:49:42;;;;;;;3.58;2.83;;;;;;;19.18;35.63;94353.03;5055486;28;20205;-62
2022/04/05 10:52:09;;;;;;;3.00;2.70;;;;;;;19.25;34.30;94387.34;5055279;28;20331;-62
2022/04/05 10:54:51;;;;;;;4.82;2.95;;;;;;;19.08;34.80;94360.31;5053928;28;20185;-61
2022/04/05 10:57:17;;;;;;;5.50;3.35;;;;;;;19.29;33.84;94373.91;5055127;28;20197;-63
2022/04/05 10:59:48;;;;;;;4.93;3.20;;;;;;;19.50;33.96;94365.34;5054845;28;20247;-62
2022/04/05 11:02:35;;;;;;;4.18;2.97;;;;;;;18.69;34.93;94332.47;5054925;28;20201;-62
2022/04/05 11:05:18;;;;;;;4.15;2.92;;;;;;;18.10;36.12;94302.84;5055148;28;20178;-62
2022/04/05 11:08:01;;;;;;;4.47;3.10;;;;;;;18.58;34.32;94335.56;5054893;28;20184;-62
2022/04/05 11:10:31;;;;;;;4.88;3.15;;;;;;;18.70;35.40;94310.91;5055059;28;20734;-62
2022/04/05 11:13:22;;;;;;;4.68;3.45;;;;;;;18.55;33.77;94348.00;5054238;28;20185;-62
2022/04/05 11:15:48;;;;;;;7.32;3.60;;;;;;;19.10;33.09;94359.13;5045607;28;20284;-60
2022/04/05 11:18:19;;;;;;;5.45;3.25;;;;;;;19.13;33.93;94329.59;5053126;28;20490;-60
2022/04/05 11:20:46;;;;;;;4.18;3.13;;;;;;;19.89;33.02;94344.88;5055166;28;20224;-62
2022/04/05 11:23:14;;;;;;;7.22;3.35;;;;;;;20.37;34.06;94316.38;5054501;28;20181;-62
2022/04/05 11:25:42;;;;;;;5.65;3.90;;;;;;;19.69;32.94;94328.53;5055063;28;20202;-62
2022/04/05 11:28:20;;;;;;;5.45;3.45;;;;;;;19.95;30.98;94380.22;5053065;28;20568;-62
2022/04/05 11:30:48;;;;;;;8.65;3.80;;;;;;;18.77;32.43;94327.19;5054490;28;20278;-59
2022/04/05 11:33:20;;;;;;;7.43;3.70;;;;;;;19.33;33.40;94301.38;5053013;28;20178;-60
2022/04/05 11:35:56;;;;;;;5.75;3.33;;;;;;;20.07;33.96;94277.22;5053060;28;20323;-62
2022/04/05 11:38:22;;;;;;;6.32;3.35;;;;;;;19.40;31.50;94338.31;5052970;28;20197;-62